Alys Beach, FL

6:36 PM CDT on August 31, 2016 (GMT -0500)
Nelda Sansouci | | Change Station

Elev 39 ft 30.24 °N, 85.91 °W | Updated 11 seconds ago

Overcast
Overcast
82.8 °F
Feels Like 92 °F
N
6.8
Wind Variable Wind from ESE
Gusts 6.8 mph

Today
High -- | Low -- °F
--% Chance of Precip.
Yesterday
High -- | Low -- °F
Precip. -- in
Pressure 29.83 in
Visibility 10.0 miles
Clouds Few 3700 ft
Overcast 8500 ft
Heat Index 92 °F
Dew Point 77 °F
Humidity 83%
Rainfall 0.05 in
Snow Depth Not available.
6:20 AM 7:07 PM
Waning Crescent, 0% visible
METAR KECP 312253Z 10004KT 10SM FEW037 OVC085 30/24 A2980 RMK AO2 SLP100 T03000239
Pressure 29.83 in
Visibility 10.0 miles
Clouds Few 3700 ft
Overcast 8500 ft
Heat Index 92 °F
Dew Point 77 °F
Humidity 83%
Rainfall 0.05 in
Snow Depth Not available.
6:20 AM 7:07 PM
Waning Crescent, 0% visible
METAR KECP 312253Z 10004KT 10SM FEW037 OVC085 30/24 A2980 RMK AO2 SLP100 T03000239
A tropical storm warning and hurricane watch is in effect for parts of the northern Florida Gulf Coast as Tropical Storm Hermine intensifies in the eastern Gulf of Mexico. A tropical storm watch is in effect for parts of the Atlantic coast of Georgia and Florida, as Hermine is expected to move near or just inland from the Southeast U.S. Coast on Friday and Friday night. Very heavy rains are possible near Hermine's path.

10-Day Weather Forecast

Almanac

Astronomy

Aug. 31, 2016 Rise Set
Actual Time
Civil Twilight
Nautical Twilight
Astronomical Twilight
Moon
Length of Visible Light
Length of Day
Tomorrow will be .
, % of the Moon is Illuminated

Today's Extremes

State Highs State Lows

Community

WunderPhotos

Upload Photos

1,936,215 photos uploaded!

WunderBlog® & News

Nearby

Air Quality

  Air Quality AQ Index Pollutant
Not available.

Snow Depth

Station Depth Elevation

Earthquake Activity

City Distance Mag. Time & Date
Minimum magnitude displayed is 2.5.

Coastal Water Temperatures

Place Temperature

Stations

Nearby Weather Stations

Station Location Temp. Windchill Dew Point Humidity Wind Precip. Elev Updated Type
                   

Watches & Warnings

There are currently no watches in effect.